createdAt,value
2022-08-05T00:01:36.328Z,19.15
2022-08-05T00:04:08.300Z,19.24
2022-08-05T00:06:39.206Z,19.23
2022-08-05T00:09:12.887Z,19.25
2022-08-05T00:11:49.361Z,19.17
2022-08-05T00:14:17.626Z,19.14
2022-08-05T00:16:53.406Z,19.08
2022-08-05T00:19:19.598Z,19.02
2022-08-05T00:21:50.375Z,18.96
2022-08-05T00:24:30.970Z,18.90
2022-08-05T00:27:01.367Z,18.86
2022-08-05T00:29:37.753Z,18.85
2022-08-05T00:32:12.854Z,18.80
2022-08-05T00:35:03.455Z,18.75
2022-08-05T00:37:19.105Z,18.66
2022-08-05T00:39:58.811Z,18.67
2022-08-05T00:42:37.010Z,18.63
2022-08-05T00:45:11.886Z,18.69
2022-08-05T00:47:57.299Z,18.55
2022-08-05T00:50:20.884Z,18.63
2022-08-05T00:52:54.904Z,18.58
2022-08-05T00:55:42.842Z,18.53
2022-08-05T00:58:05.413Z,18.53
2022-08-05T01:00:39.091Z,18.61
2022-08-05T01:03:12.646Z,18.53
2022-08-05T01:05:46.958Z,18.53
2022-08-05T01:08:40.333Z,18.49
2022-08-05T01:10:58.011Z,18.53
2022-08-05T01:13:58.642Z,18.52
2022-08-05T01:16:39.444Z,18.42
2022-08-05T01:19:36.795Z,18.33
2022-08-05T01:22:24.375Z,18.37
2022-08-05T01:25:00.322Z,18.38
2022-08-05T01:28:02.478Z,18.33
2022-08-05T01:30:34.080Z,18.30
2022-08-05T01:33:09.330Z,18.25
2022-08-05T01:38:42.911Z,18.24
2022-08-05T01:41:21.069Z,18.17
2022-08-05T01:44:05.528Z,18.25
2022-08-05T01:46:42.002Z,18.32
2022-08-05T01:52:18.078Z,18.21
2022-08-05T01:58:12.248Z,18.13
2022-08-05T02:00:37.039Z,18.10
2022-08-05T02:08:40.887Z,17.72
2022-08-05T02:11:32.877Z,17.89
2022-08-05T02:14:08.422Z,17.89
2022-08-05T02:16:55.619Z,17.86
2022-08-05T02:19:47.370Z,17.76
2022-08-05T02:25:26.566Z,17.70
2022-08-05T02:28:04.307Z,17.73
2022-08-05T02:31:14.345Z,17.71
2022-08-05T02:33:24.498Z,17.52
2022-08-05T02:36:06.539Z,17.46
2022-08-05T02:38:43.363Z,17.37
2022-08-05T02:41:17.843Z,17.49
2022-08-05T02:44:06.514Z,17.41
2022-08-05T02:46:27.665Z,17.39
2022-08-05T02:48:56.336Z,17.41
2022-08-05T02:51:48.463Z,17.37
2022-08-05T02:54:35.026Z,17.44
2022-08-05T02:56:39.560Z,17.48
2022-08-05T02:59:13.137Z,17.54
2022-08-05T03:01:52.960Z,17.45
2022-08-05T03:04:28.170Z,17.37
2022-08-05T03:07:04.619Z,17.25
2022-08-05T03:09:51.515Z,17.07
2022-08-05T03:12:28.929Z,17.27
2022-08-05T03:14:57.814Z,17.22
2022-08-05T03:17:26.853Z,17.24
2022-08-05T03:19:56.333Z,17.27
2022-08-05T03:22:32.338Z,17.19
2022-08-05T03:25:31.716Z,17.18
2022-08-05T03:28:00.128Z,17.10
2022-08-05T03:30:16.506Z,17.19
2022-08-05T03:32:47.268Z,17.17
2022-08-05T03:35:17.279Z,17.17
2022-08-05T03:37:47.780Z,17.16
2022-08-05T03:40:24.188Z,17.13
2022-08-05T03:42:52.911Z,17.22
2022-08-05T03:45:23.819Z,17.22
2022-08-05T03:47:57.107Z,17.28
2022-08-05T03:50:26.302Z,17.33
2022-08-05T03:55:50.895Z,17.56
2022-08-05T03:56:06.066Z,18.46
2022-08-05T03:58:20.889Z,19.66
2022-08-05T04:00:54.502Z,20.46
2022-08-05T04:03:30.542Z,21.31
2022-08-05T04:06:03.437Z,21.77
2022-08-05T04:08:36.829Z,21.83
2022-08-05T04:11:08.559Z,21.96
2022-08-05T04:13:51.035Z,22.11
2022-08-05T04:16:25.234Z,23.00
2022-08-05T04:18:57.895Z,23.79
2022-08-05T04:22:10.248Z,23.99
2022-08-05T04:24:19.088Z,23.88
2022-08-05T04:26:49.389Z,23.79
2022-08-05T04:29:39.777Z,23.46
2022-08-05T04:32:06.206Z,23.91
2022-08-05T04:34:43.627Z,23.18
2022-08-05T04:37:16.808Z,22.49
2022-08-05T04:39:55.764Z,21.05
2022-08-05T04:42:27.181Z,20.36
2022-08-05T04:45:05.435Z,19.95
2022-08-05T04:47:51.909Z,19.53
2022-08-05T04:50:37.434Z,19.70
2022-08-05T04:53:08.548Z,19.58
2022-08-05T04:56:33.520Z,19.56
2022-08-05T04:58:21.608Z,19.47
2022-08-05T05:00:57.213Z,19.45
2022-08-05T05:03:41.870Z,19.36
2022-08-05T05:06:40.591Z,19.44
2022-08-05T05:08:50.919Z,19.60
2022-08-05T05:11:23.082Z,19.65
2022-08-05T05:14:06.386Z,19.78
2022-08-05T05:16:48.690Z,19.86
2022-08-05T05:19:47.355Z,19.97
2022-08-05T05:22:23.992Z,20.07
2022-08-05T05:24:57.899Z,20.18
2022-08-05T05:27:24.990Z,20.18
2022-08-05T05:30:31.046Z,20.28
2022-08-05T05:33:15.994Z,20.31
2022-08-05T05:35:52.032Z,20.36
2022-08-05T05:38:27.482Z,20.42
2022-08-05T05:40:57.279Z,20.41
2022-08-05T05:43:54.767Z,20.61
2022-08-05T05:46:01.897Z,20.71
2022-08-05T05:48:36.793Z,20.82
2022-08-05T05:51:17.811Z,20.86
2022-08-05T05:54:02.794Z,21.02
2022-08-05T05:56:48.227Z,21.08
2022-08-05T05:59:22.795Z,21.21
2022-08-05T06:01:58.138Z,21.42
2022-08-05T06:04:28.877Z,21.40
2022-08-05T06:07:08.560Z,21.50
2022-08-05T06:09:52.578Z,21.68
2022-08-05T06:12:09.578Z,21.76
2022-08-05T06:23:32.225Z,21.94
2022-08-05T06:29:42.948Z,21.84
2022-08-05T06:31:40.176Z,21.85
2022-08-05T06:34:13.321Z,22.03
2022-08-05T06:36:56.710Z,22.28
2022-08-05T06:39:24.547Z,22.57
2022-08-05T06:41:55.468Z,22.42
2022-08-05T06:44:26.147Z,22.60
2022-08-05T06:46:56.668Z,22.78
2022-08-05T06:50:01.149Z,22.94
2022-08-05T06:51:59.244Z,23.17
2022-08-05T06:54:28.028Z,23.24
2022-08-05T06:57:57.836Z,23.32
2022-08-05T06:59:30.367Z,23.38
2022-08-05T07:01:58.849Z,23.47
2022-08-05T07:04:27.431Z,23.40
2022-08-05T07:07:00.771Z,23.08
2022-08-05T07:09:32.340Z,23.41
2022-08-05T07:12:02.861Z,23.61
2022-08-05T07:14:49.575Z,23.73
2022-08-05T07:18:02.423Z,23.99
2022-08-05T07:22:27.716Z,24.16
2022-08-05T07:24:56.299Z,24.27
2022-08-05T07:27:27.780Z,24.08
2022-08-05T07:30:22.354Z,24.24
2022-08-05T07:32:27.915Z,24.51
2022-08-05T07:34:58.675Z,24.67
2022-08-05T07:37:35.943Z,24.52
2022-08-05T07:40:04.788Z,24.45
2022-08-05T07:42:33.410Z,24.77
2022-08-05T07:45:01.134Z,25.03
2022-08-05T07:47:42.034Z,25.24
2022-08-05T07:50:06.681Z,25.43
2022-08-05T07:52:33.560Z,25.50
2022-08-05T07:55:16.044Z,25.54
2022-08-05T07:57:55.190Z,25.70
2022-08-05T08:00:14.122Z,25.61
2022-08-05T08:03:14.834Z,25.81
2022-08-05T08:05:17.650Z,25.94
2022-08-05T08:07:59.617Z,26.22
2022-08-05T08:10:20.699Z,26.26
2022-08-05T08:12:51.080Z,26.39
2022-08-05T08:16:34.352Z,26.30
2022-08-05T08:17:53.285Z,26.21
2022-08-05T08:20:44.221Z,25.91
2022-08-05T08:24:02.126Z,26.06
2022-08-05T08:26:00.768Z,26.50
2022-08-05T08:28:18.963Z,26.11
2022-08-05T08:31:02.682Z,26.74
2022-08-05T08:33:37.478Z,26.90
2022-08-05T08:36:38.218Z,26.95
2022-08-05T08:38:54.093Z,26.96
2022-08-05T08:41:18.115Z,26.79
2022-08-05T08:45:20.486Z,26.93
2022-08-05T08:46:21.941Z,27.28
2022-08-05T08:49:06.357Z,27.74
2022-08-05T08:52:06.163Z,27.94
2022-08-05T08:53:55.934Z,27.85
2022-08-05T08:56:26.975Z,27.44
2022-08-05T08:58:57.493Z,27.83
2022-08-05T09:01:27.477Z,28.01
2022-08-05T09:04:03.085Z,28.14
2022-08-05T09:06:36.377Z,28.29
2022-08-05T09:09:04.599Z,28.36
2022-08-05T09:11:52.808Z,28.23
2022-08-05T09:14:53.922Z,28.23
2022-08-05T09:16:41.110Z,28.22
2022-08-05T09:19:14.612Z,28.52
2022-08-05T09:22:23.073Z,28.47
2022-08-05T09:24:17.401Z,28.69
2022-08-05T09:26:54.122Z,28.75
2022-08-05T09:29:30.697Z,28.94
2022-08-05T09:32:39.919Z,29.12
2022-08-05T09:34:58.702Z,29.05
2022-08-05T09:38:16.621Z,29.30
2022-08-05T09:40:00.225Z,29.34
2022-08-05T09:42:32.470Z,29.42
2022-08-05T09:46:05.123Z,29.47
2022-08-05T09:47:48.469Z,29.25
2022-08-05T09:50:05.477Z,29.51
2022-08-05T09:52:45.231Z,29.70
2022-08-05T09:55:56.619Z,29.73
2022-08-05T09:57:47.667Z,29.58
2022-08-05T10:00:23.795Z,29.76
2022-08-05T10:02:58.108Z,29.67
2022-08-05T10:05:28.441Z,29.73
2022-08-05T10:08:34.894Z,30.01
2022-08-05T10:10:53.883Z,30.10
2022-08-05T10:13:47.093Z,30.05
2022-08-05T10:16:08.368Z,30.14
2022-08-05T10:18:38.081Z,30.08
2022-08-05T10:21:11.906Z,30.02
2022-08-05T10:23:59.209Z,30.09
2022-08-05T10:26:16.994Z,30.18
2022-08-05T10:28:48.404Z,30.14
2022-08-05T10:32:49.324Z,30.31
2022-08-05T10:33:52.329Z,30.41
2022-08-05T10:36:23.722Z,30.04
2022-08-05T10:38:58.052Z,30.43
2022-08-05T10:41:57.875Z,30.48
2022-08-05T10:44:27.908Z,30.45
2022-08-05T10:46:58.504Z,30.54
2022-08-05T10:49:33.425Z,30.59
2022-08-05T10:52:02.659Z,30.68
2022-08-05T10:58:17.882Z,30.88
2022-08-05T11:00:55.302Z,30.45
2022-08-05T11:03:33.698Z,30.34
2022-08-05T11:06:30.955Z,30.81
2022-08-05T11:09:17.011Z,31.04
2022-08-05T11:12:04.853Z,31.17
2022-08-05T11:15:01.406Z,31.22
2022-08-05T11:17:57.438Z,31.18
2022-08-05T11:20:10.081Z,31.21
2022-08-05T11:22:42.733Z,31.33
2022-08-05T11:26:04.214Z,31.59
2022-08-05T11:28:17.202Z,31.83
2022-08-05T11:31:06.494Z,31.64
2022-08-05T11:34:02.925Z,31.66
2022-08-05T11:36:54.646Z,31.54
2022-08-05T11:39:50.443Z,31.78
2022-08-05T11:42:31.941Z,32.04
2022-08-05T11:45:23.374Z,31.85
2022-08-05T11:47:48.593Z,31.77
2022-08-05T11:50:14.368Z,31.68
2022-08-05T11:52:46.100Z,32.20
2022-08-05T11:55:16.662Z,32.04
2022-08-05T11:58:09.175Z,31.94
2022-08-05T12:00:44.112Z,31.56
2022-08-05T12:03:31.519Z,32.39
2022-08-05T12:06:06.046Z,32.72
2022-08-05T12:11:40.236Z,33.56
2022-08-05T12:14:10.307Z,33.78
2022-08-05T12:16:45.578Z,33.62
2022-08-05T12:20:16.771Z,32.90
2022-08-05T12:21:46.997Z,33.71
2022-08-05T12:24:21.248Z,33.43
2022-08-05T12:26:54.974Z,33.19
2022-08-05T12:29:26.050Z,33.47
2022-08-05T12:32:01.992Z,32.49
2022-08-05T12:34:33.644Z,32.28
2022-08-05T12:37:08.463Z,32.52
2022-08-05T12:39:40.085Z,32.79
2022-08-05T12:42:15.292Z,32.67
2022-08-05T12:44:45.851Z,32.40
2022-08-05T12:47:31.451Z,32.49
2022-08-05T12:50:02.254Z,32.50
2022-08-05T12:52:38.813Z,32.39
2022-08-05T12:55:22.237Z,31.71
2022-08-05T12:58:49.150Z,31.72
2022-08-05T13:02:02.930Z,31.36
2022-08-05T13:03:04.486Z,31.76
2022-08-05T13:05:40.454Z,31.68
2022-08-05T13:08:11.163Z,31.94
2022-08-05T13:10:50.210Z,31.90
2022-08-05T13:14:05.052Z,31.96
2022-08-05T13:15:54.580Z,32.15
2022-08-05T13:18:29.196Z,32.41
2022-08-05T13:20:57.802Z,32.42
2022-08-05T13:23:26.372Z,32.07
2022-08-05T13:26:01.155Z,32.05
2022-08-05T13:28:32.065Z,31.80
2022-08-05T13:31:14.282Z,32.19
2022-08-05T13:34:22.766Z,32.28
2022-08-05T13:36:35.148Z,32.16
2022-08-05T13:39:24.592Z,32.32
2022-08-05T13:41:47.029Z,32.44
2022-08-05T13:44:16.858Z,32.43
2022-08-05T13:47:08.648Z,32.10
2022-08-05T13:49:18.734Z,31.99
2022-08-05T13:51:48.329Z,31.95
2022-08-05T13:54:21.250Z,32.06
2022-08-05T13:56:51.995Z,31.94
2022-08-05T13:59:30.897Z,31.25
2022-08-05T14:02:03.301Z,30.88
2022-08-05T14:04:56.199Z,30.90
2022-08-05T14:08:00.059Z,31.01
2022-08-05T14:10:18.810Z,31.28
2022-08-05T14:12:48.440Z,31.05
2022-08-05T14:16:08.567Z,31.35
2022-08-05T14:17:59.750Z,31.44
2022-08-05T14:20:36.287Z,31.58
2022-08-05T14:23:10.825Z,31.93
2022-08-05T14:25:47.474Z,32.09
2022-08-05T14:28:26.054Z,32.48
2022-08-05T14:31:03.468Z,32.45
2022-08-05T14:33:59.056Z,32.67
2022-08-05T14:36:16.133Z,32.70
2022-08-05T14:42:19.674Z,34.67
2022-08-05T14:44:44.665Z,36.04
2022-08-05T14:47:15.600Z,36.60
2022-08-05T14:49:58.539Z,36.52
2022-08-05T14:52:52.664Z,36.15
2022-08-05T14:55:38.730Z,37.45
2022-08-05T14:58:10.986Z,37.90
2022-08-05T15:00:58.027Z,38.08
2022-08-05T15:03:25.244Z,36.42
2022-08-05T15:06:07.910Z,35.55
2022-08-05T15:08:56.863Z,34.86
2022-08-05T15:11:01.153Z,35.50
2022-08-05T15:13:46.001Z,36.07
2022-08-05T15:16:05.688Z,36.10
2022-08-05T15:18:37.388Z,36.12
2022-08-05T15:21:23.865Z,36.45
2022-08-05T15:23:53.378Z,36.64
2022-08-05T15:26:42.021Z,36.52
2022-08-05T15:32:28.879Z,35.78
2022-08-05T15:35:10.839Z,35.95
2022-08-05T15:38:34.178Z,36.28
2022-08-05T15:41:02.824Z,36.04
2022-08-05T15:42:55.817Z,36.12
2022-08-05T15:45:13.896Z,36.46
2022-08-05T15:47:44.541Z,35.23
2022-08-05T15:50:15.982Z,34.25
2022-08-05T15:52:53.714Z,33.38
2022-08-05T15:55:17.795Z,33.93
2022-08-05T15:57:53.809Z,33.93
2022-08-05T16:00:42.891Z,33.59
2022-08-05T16:02:59.060Z,34.19
2022-08-05T16:05:31.052Z,34.46
2022-08-05T16:08:16.092Z,33.93
2022-08-05T16:10:46.700Z,34.20
2022-08-05T16:13:23.917Z,33.37
2022-08-05T16:15:54.571Z,32.99
2022-08-05T16:18:30.321Z,32.32
2022-08-05T16:21:04.345Z,32.15
2022-08-05T16:23:54.362Z,31.67
2022-08-05T16:26:10.236Z,31.38
2022-08-05T16:28:41.254Z,31.09
2022-08-05T16:31:10.717Z,30.87
2022-08-05T16:33:41.555Z,30.96
2022-08-05T16:36:09.980Z,30.85
2022-08-05T16:38:39.516Z,30.76
2022-08-05T16:42:13.584Z,30.64
2022-08-05T16:43:42.101Z,30.54
2022-08-05T16:46:24.209Z,30.51
2022-08-05T16:48:52.803Z,30.40
2022-08-05T16:51:22.232Z,30.20
2022-08-05T16:54:06.230Z,30.06
2022-08-05T16:56:22.812Z,29.96
2022-08-05T16:58:52.775Z,29.81
2022-08-05T17:01:24.333Z,29.65
2022-08-05T17:03:54.495Z,29.53
2022-08-05T17:06:24.649Z,29.42
2022-08-05T17:08:54.659Z,29.30
2022-08-05T17:11:26.174Z,29.20
2022-08-05T17:14:05.939Z,29.16
2022-08-05T17:16:32.842Z,29.01
2022-08-05T17:18:57.275Z,28.87
2022-08-05T17:21:35.721Z,28.73
2022-08-05T17:24:04.877Z,28.61
2022-08-05T17:26:32.903Z,28.52
2022-08-05T17:29:33.059Z,28.44
2022-08-05T17:31:57.082Z,28.32
2022-08-05T17:34:30.114Z,28.17
2022-08-05T17:36:58.189Z,28.08
2022-08-05T17:39:34.081Z,27.96
2022-08-05T17:42:19.207Z,27.89
2022-08-05T17:44:35.543Z,27.72
2022-08-05T17:47:10.238Z,27.59
2022-08-05T17:49:56.738Z,27.39
2022-08-05T17:52:23.727Z,27.21
2022-08-05T17:55:04.156Z,27.09
2022-08-05T17:57:48.670Z,26.96
2022-08-05T18:00:15.321Z,26.81
2022-08-05T18:02:45.516Z,26.73
2022-08-05T18:05:17.600Z,26.64
2022-08-05T18:07:46.673Z,26.56
2022-08-05T18:10:21.050Z,26.45
2022-08-05T18:12:48.796Z,26.36
2022-08-05T18:15:17.875Z,26.26
2022-08-05T18:18:00.239Z,26.16
2022-08-05T18:20:29.198Z,26.17
2022-08-05T18:23:04.869Z,26.00
2022-08-05T18:25:44.051Z,25.91
2022-08-05T18:28:09.512Z,25.88
2022-08-05T18:30:40.225Z,25.82
2022-08-05T18:33:13.460Z,25.75
2022-08-05T18:35:59.804Z,25.63
2022-08-05T18:38:19.194Z,25.58
2022-08-05T18:41:55.434Z,25.56
2022-08-05T18:43:20.025Z,25.47
2022-08-05T18:45:54.036Z,25.38
2022-08-05T18:48:31.466Z,25.36
2022-08-05T18:52:04.669Z,25.35
2022-08-05T18:53:50.399Z,25.22
2022-08-05T18:56:21.690Z,25.16
2022-08-05T18:58:51.066Z,25.04
2022-08-05T19:01:33.351Z,25.01
2022-08-05T19:03:56.562Z,24.99
2022-08-05T19:06:34.239Z,24.93
2022-08-05T19:08:58.130Z,24.98
2022-08-05T19:11:59.274Z,24.76
2022-08-05T19:14:01.212Z,24.72
2022-08-05T19:16:35.352Z,24.67
2022-08-05T19:19:01.116Z,24.54
2022-08-05T19:21:34.813Z,24.49
2022-08-05T19:24:07.163Z,24.45
2022-08-05T19:26:32.145Z,24.38
2022-08-05T19:29:07.293Z,24.26
2022-08-05T19:31:51.962Z,24.23
2022-08-05T19:34:09.253Z,24.22
2022-08-05T19:36:38.455Z,24.16
2022-08-05T19:39:10.378Z,24.10
2022-08-05T19:42:07.171Z,24.02
2022-08-05T19:44:15.161Z,23.98
2022-08-05T19:46:44.005Z,23.87
2022-08-05T19:49:17.888Z,23.86
2022-08-05T19:52:05.760Z,23.81
2022-08-05T19:54:27.150Z,23.77
2022-08-05T19:56:52.385Z,23.66
2022-08-05T19:59:51.284Z,23.64
2022-08-05T20:01:58.934Z,23.62
2022-08-05T20:04:29.566Z,23.51
2022-08-05T20:07:03.169Z,23.54
2022-08-05T20:09:53.958Z,23.43
2022-08-05T20:12:04.116Z,23.35
2022-08-05T20:14:33.850Z,23.36
2022-08-05T20:17:04.048Z,23.41
2022-08-05T20:19:36.253Z,23.37
2022-08-05T20:22:05.611Z,23.30
2022-08-05T20:24:37.582Z,23.32
2022-08-05T20:27:11.175Z,23.26
2022-08-05T20:29:37.333Z,23.14
2022-08-05T20:32:07.983Z,23.13
2022-08-05T20:34:41.136Z,23.13
2022-08-05T20:37:24.160Z,23.13
2022-08-05T20:39:51.507Z,23.14
2022-08-05T20:42:21.980Z,23.13
2022-08-05T20:44:53.947Z,23.12
2022-08-05T20:47:31.113Z,23.00
2022-08-05T20:49:53.546Z,22.90
2022-08-05T20:52:24.788Z,22.89
2022-08-05T20:55:15.926Z,22.93
2022-08-05T20:57:43.230Z,22.89
2022-08-05T21:00:20.532Z,22.88
2022-08-05T21:02:30.920Z,22.84
2022-08-05T21:05:02.732Z,22.81
2022-08-05T21:07:45.688Z,22.78
2022-08-05T21:10:13.742Z,22.75
2022-08-05T21:12:57.811Z,22.70
2022-08-05T21:15:13.554Z,22.59
2022-08-05T21:17:42.340Z,22.56
2022-08-05T21:20:14.702Z,22.59
2022-08-05T21:22:45.795Z,22.50
2022-08-05T21:25:16.001Z,22.47
2022-08-05T21:27:52.712Z,22.47
2022-08-05T21:30:21.664Z,22.44
2022-08-05T21:32:56.296Z,22.30
2022-08-05T21:35:55.394Z,22.29
2022-08-05T21:38:08.121Z,22.29
2022-08-05T21:40:42.659Z,22.36
2022-08-05T21:43:24.235Z,22.30
2022-08-05T21:45:56.520Z,22.30
2022-08-05T21:48:49.165Z,22.26
2022-08-05T21:52:21.434Z,22.23
2022-08-05T21:54:07.571Z,22.15
2022-08-05T21:56:51.469Z,22.01
2022-08-05T21:59:24.341Z,21.94
2022-08-05T22:01:47.090Z,21.84
2022-08-05T22:04:17.175Z,21.70
2022-08-05T22:06:50.600Z,21.64
2022-08-05T22:09:22.296Z,21.65
2022-08-05T22:11:54.656Z,21.55
2022-08-05T22:14:35.515Z,21.49
2022-08-05T22:17:09.394Z,21.51
2022-08-05T22:20:01.791Z,21.50
2022-08-05T22:22:16.780Z,21.51
2022-08-05T22:25:20.923Z,21.39
2022-08-05T22:28:09.152Z,21.37
2022-08-05T22:30:22.762Z,21.27
2022-08-05T22:33:00.750Z,21.33
2022-08-05T22:35:48.961Z,21.33
2022-08-05T22:38:06.862Z,21.38
2022-08-05T22:40:37.541Z,21.35
2022-08-05T22:43:12.584Z,21.37
2022-08-05T22:45:46.893Z,21.25
2022-08-05T22:48:57.181Z,21.21
2022-08-05T22:50:56.468Z,21.17
2022-08-05T22:53:35.931Z,21.17
2022-08-05T22:56:06.091Z,21.10
2022-08-05T22:58:44.311Z,20.98
2022-08-05T23:01:22.626Z,20.96
2022-08-05T23:03:57.777Z,20.97
2022-08-05T23:06:26.288Z,21.02
2022-08-05T23:09:26.826Z,20.95
2022-08-05T23:11:49.286Z,21.00
2022-08-05T23:14:10.765Z,20.98
2022-08-05T23:17:01.329Z,20.95
2022-08-05T23:19:41.877Z,20.92
2022-08-05T23:22:09.527Z,20.89
2022-08-05T23:24:53.657Z,20.72
2022-08-05T23:27:28.970Z,20.75
2022-08-05T23:29:58.932Z,20.82
2022-08-05T23:32:32.847Z,20.72
2022-08-05T23:35:20.255Z,20.70
2022-08-05T23:37:52.999Z,20.75
2022-08-05T23:40:30.208Z,20.72
2022-08-05T23:43:25.286Z,20.60
2022-08-05T23:45:45.594Z,20.62
2022-08-05T23:51:09.428Z,20.55
2022-08-05T23:53:50.941Z,20.59
2022-08-05T23:56:41.555Z,20.54
2022-08-05T23:59:16.174Z,20.48
